03:47
Airports
History
Links
Donate
Help keep this website running!
PayPal
Bitcoin
Information on this page is community maintained and may be outdated or inaccurate and is intended for reference only or PC simulator navigating!
Always use approved charts for navigating.
EG86
Rushett Farm ChessingtonEdited 07-Mar-2012
Rushett Farm Chessington (EG86)
Chessington, England, United Kingdom
4
Lat/Lng:51° 20' 11.34" N / 0° 18' 51.52" W
51.336483 / -0.31431
Elevation:160'ft 49mMSL
ID / ICAO:EG86
Runways:1
Longest:(20-02) 498.9m 1,637ft Grass
Distance To
Airport ID:
Nearby VORs <50NM
Nearby NDBs
Nearby WeatherUpdated 03-25-17 03:20 GMT
Nearby weather at EGLL, London Heathrow located 11.3 nautical miles from EG86
Altimeter: 30.45
Visibility: 6.2 statute miles
Wind: 6 knots (040°)
Temp: 5°c 41°f
Humidity: 86.9%

METAR: EGLL 250320Z AUTO 04006KT 9999 NCD 05/03 Q1031 NOSIG

(Powered by phpweather)
Runway 20 / 02
Dimensions:498.9 x 22.9m 1637' x 75'ft
Surface:Grass
Runway 20 [A]Runway 02 [B]
Heading:199°TH 019°TH
Lat:
Lng:
51° 20' 18.89"N
0° 18' 47.21"W
51° 20' 3.79"N
0° 18' 55.82"W
Google Map
Nearby Airports
(U) Brooklands 6.8 NM
EGLB W 277°
(U) RAF Kenley 9.7 NM
EGKN ESE 102°
(C) Fairoaks 10.6 NM
EGTF W 274°
(C) London Heathrow 11.3 NM
EGLL (WX) NW 325°
(C) Redhill 11.3 NM
EGKR SE 137°
(C) London Gatwick 14.1 NM
EGKK (WX) SSE 157°
(C) Biggin Hill 15.0 NM
EGKB (WX) E 91°
VFR Chart
Flight Planning at SkyVector.com